sensor_id;sensor_type;location;lat;lon;timestamp;P1;durP1;ratioP1;P2;durP2;ratioP2
41201;SDS011;26936;50.524;8.684;2023-12-22T00:01:03;6.90;;;1.25;;
41201;SDS011;26936;50.524;8.684;2023-12-22T00:03:28;8.95;;;1.55;;
41201;SDS011;26936;50.524;8.684;2023-12-22T00:05:54;3.23;;;1.10;;
41201;SDS011;26936;50.524;8.684;2023-12-22T00:08:19;5.10;;;1.20;;
41201;SDS011;26936;50.524;8.684;2023-12-22T00:10:44;1.35;;;0.70;;
41201;SDS011;26936;50.524;8.684;2023-12-22T00:13:09;4.82;;;1.15;;
41201;SDS011;26936;50.524;8.684;2023-12-22T00:15:35;2.13;;;0.70;;
41201;SDS011;26936;50.524;8.684;2023-12-22T00:18:00;5.03;;;1.05;;
41201;SDS011;26936;50.524;8.684;2023-12-22T00:20:25;1.47;;;0.80;;
41201;SDS011;26936;50.524;8.684;2023-12-22T00:22:51;3.00;;;0.70;;
41201;SDS011;26936;50.524;8.684;2023-12-22T00:25:16;5.83;;;0.80;;
41201;SDS011;26936;50.524;8.684;2023-12-22T00:27:41;4.63;;;0.43;;
41201;SDS011;26936;50.524;8.684;2023-12-22T00:30:06;4.93;;;1.10;;
41201;SDS011;26936;50.524;8.684;2023-12-22T00:32:32;3.50;;;0.60;;
41201;SDS011;26936;50.524;8.684;2023-12-22T00:34:57;1.55;;;0.50;;
41201;SDS011;26936;50.524;8.684;2023-12-22T00:37:23;5.95;;;0.85;;
41201;SDS011;26936;50.524;8.684;2023-12-22T00:39:48;6.47;;;0.85;;
41201;SDS011;26936;50.524;8.684;2023-12-22T00:42:14;7.27;;;1.30;;
41201;SDS011;26936;50.524;8.684;2023-12-22T00:44:39;3.77;;;0.97;;
41201;SDS011;26936;50.524;8.684;2023-12-22T00:47:05;3.25;;;0.60;;
41201;SDS011;26936;50.524;8.684;2023-12-22T00:49:30;2.95;;;0.60;;
41201;SDS011;26936;50.524;8.684;2023-12-22T00:51:55;2.33;;;0.60;;
41201;SDS011;26936;50.524;8.684;2023-12-22T00:54:21;3.35;;;0.60;;
41201;SDS011;26936;50.524;8.684;2023-12-22T00:56:46;3.92;;;0.60;;
41201;SDS011;26936;50.524;8.684;2023-12-22T00:59:11;5.40;;;0.67;;
41201;SDS011;26936;50.524;8.684;2023-12-22T01:01:36;3.78;;;0.60;;
41201;SDS011;26936;50.524;8.684;2023-12-22T01:04:02;5.50;;;0.50;;
41201;SDS011;26936;50.524;8.684;2023-12-22T01:06:27;3.53;;;0.60;;
41201;SDS011;26936;50.524;8.684;2023-12-22T01:08:52;4.97;;;0.70;;
41201;SDS011;26936;50.524;8.684;2023-12-22T01:11:18;2.58;;;0.57;;
41201;SDS011;26936;50.524;8.684;2023-12-22T01:13:43;5.43;;;0.60;;
41201;SDS011;26936;50.524;8.684;2023-12-22T01:16:09;3.88;;;0.73;;
41201;SDS011;26936;50.524;8.684;2023-12-22T01:18:34;3.85;;;0.57;;
41201;SDS011;26936;50.524;8.684;2023-12-22T01:20:59;4.75;;;0.95;;
41201;SDS011;26936;50.524;8.684;2023-12-22T01:23:25;5.90;;;0.90;;
41201;SDS011;26936;50.524;8.684;2023-12-22T01:25:50;4.70;;;0.80;;
41201;SDS011;26936;50.524;8.684;2023-12-22T01:28:16;4.18;;;0.57;;
41201;SDS011;26936;50.524;8.684;2023-12-22T01:30:41;4.82;;;0.70;;
41201;SDS011;26936;50.524;8.684;2023-12-22T01:33:06;4.23;;;0.77;;
41201;SDS011;26936;50.524;8.684;2023-12-22T01:35:32;2.83;;;0.70;;
41201;SDS011;26936;50.524;8.684;2023-12-22T01:37:57;4.88;;;0.50;;
41201;SDS011;26936;50.524;8.684;2023-12-22T01:40:22;2.28;;;0.45;;
41201;SDS011;26936;50.524;8.684;2023-12-22T01:42:47;5.53;;;0.90;;
41201;SDS011;26936;50.524;8.684;2023-12-22T01:45:13;4.30;;;0.90;;
41201;SDS011;26936;50.524;8.684;2023-12-22T01:47:38;2.88;;;0.80;;
41201;SDS011;26936;50.524;8.684;2023-12-22T01:50:04;1.73;;;0.47;;
41201;SDS011;26936;50.524;8.684;2023-12-22T01:52:30;5.60;;;0.88;;
41201;SDS011;26936;50.524;8.684;2023-12-22T01:54:55;2.03;;;0.43;;
41201;SDS011;26936;50.524;8.684;2023-12-22T01:57:20;4.05;;;0.68;;
41201;SDS011;26936;50.524;8.684;2023-12-22T01:59:46;4.80;;;0.68;;
41201;SDS011;26936;50.524;8.684;2023-12-22T02:02:13;2.90;;;0.60;;
41201;SDS011;26936;50.524;8.684;2023-12-22T02:04:39;5.55;;;0.90;;
41201;SDS011;26936;50.524;8.684;2023-12-22T02:07:05;5.80;;;0.68;;
41201;SDS011;26936;50.524;8.684;2023-12-22T02:09:33;3.05;;;0.65;;
41201;SDS011;26936;50.524;8.684;2023-12-22T02:11:59;2.35;;;0.85;;
41201;SDS011;26936;50.524;8.684;2023-12-22T02:14:24;2.83;;;0.60;;
41201;SDS011;26936;50.524;8.684;2023-12-22T02:17:06;2.70;;;0.65;;
41201;SDS011;26936;50.524;8.684;2023-12-22T02:19:42;2.80;;;0.47;;
41201;SDS011;26936;50.524;8.684;2023-12-22T02:22:08;5.00;;;0.45;;
41201;SDS011;26936;50.524;8.684;2023-12-22T02:24:35;3.15;;;0.65;;
41201;SDS011;26936;50.524;8.684;2023-12-22T02:27:10;5.03;;;0.60;;
41201;SDS011;26936;50.524;8.684;2023-12-22T02:29:48;4.88;;;0.90;;
41201;SDS011;26936;50.524;8.684;2023-12-22T02:32:51;6.72;;;0.60;;
41201;SDS011;26936;50.524;8.684;2023-12-22T02:35:13;2.25;;;0.63;;
41201;SDS011;26936;50.524;8.684;2023-12-22T02:37:42;6.28;;;0.70;;
41201;SDS011;26936;50.524;8.684;2023-12-22T02:40:10;3.58;;;0.70;;
41201;SDS011;26936;50.524;8.684;2023-12-22T02:42:36;2.47;;;0.50;;
41201;SDS011;26936;50.524;8.684;2023-12-22T02:45:03;3.28;;;0.50;;
41201;SDS011;26936;50.524;8.684;2023-12-22T02:47:30;2.70;;;0.80;;
41201;SDS011;26936;50.524;8.684;2023-12-22T02:49:57;3.55;;;0.55;;
41201;SDS011;26936;50.524;8.684;2023-12-22T02:52:22;3.15;;;0.55;;
41201;SDS011;26936;50.524;8.684;2023-12-22T02:54:48;1.88;;;0.38;;
41201;SDS011;26936;50.524;8.684;2023-12-22T02:57:13;2.38;;;0.50;;
41201;SDS011;26936;50.524;8.684;2023-12-22T02:59:38;2.10;;;0.53;;
41201;SDS011;26936;50.524;8.684;2023-12-22T03:02:04;3.42;;;0.60;;
41201;SDS011;26936;50.524;8.684;2023-12-22T03:04:29;2.30;;;0.52;;
41201;SDS011;26936;50.524;8.684;2023-12-22T03:06:55;1.48;;;0.40;;
41201;SDS011;26936;50.524;8.684;2023-12-22T03:09:20;1.58;;;0.30;;
41201;SDS011;26936;50.524;8.684;2023-12-22T03:11:46;1.60;;;0.40;;
41201;SDS011;26936;50.524;8.684;2023-12-22T03:14:12;2.85;;;0.38;;
41201;SDS011;26936;50.524;8.684;2023-12-22T03:16:37;3.83;;;0.40;;
41201;SDS011;26936;50.524;8.684;2023-12-22T03:19:02;2.38;;;0.40;;
41201;SDS011;26936;50.524;8.684;2023-12-22T03:21:28;0.88;;;0.38;;
41201;SDS011;26936;50.524;8.684;2023-12-22T03:23:53;1.77;;;0.40;;
41201;SDS011;26936;50.524;8.684;2023-12-22T03:26:18;1.20;;;0.20;;
41201;SDS011;26936;50.524;8.684;2023-12-22T03:28:43;1.33;;;0.35;;
41201;SDS011;26936;50.524;8.684;2023-12-22T03:31:09;1.67;;;0.15;;
41201;SDS011;26936;50.524;8.684;2023-12-22T03:33:34;1.95;;;0.28;;
41201;SDS011;26936;50.524;8.684;2023-12-22T03:35:59;2.17;;;0.30;;
41201;SDS011;26936;50.524;8.684;2023-12-22T03:38:25;0.93;;;0.23;;
41201;SDS011;26936;50.524;8.684;2023-12-22T03:40:50;3.28;;;0.30;;
41201;SDS011;26936;50.524;8.684;2023-12-22T03:43:15;1.50;;;0.20;;
41201;SDS011;26936;50.524;8.684;2023-12-22T03:45:40;0.52;;;0.20;;
41201;SDS011;26936;50.524;8.684;2023-12-22T03:48:06;1.35;;;0.30;;
41201;SDS011;26936;50.524;8.684;2023-12-22T03:50:31;0.30;;;0.13;;
41201;SDS011;26936;50.524;8.684;2023-12-22T03:52:56;0.20;;;0.20;;
41201;SDS011;26936;50.524;8.684;2023-12-22T03:55:22;0.87;;;0.20;;
41201;SDS011;26936;50.524;8.684;2023-12-22T03:57:47;2.17;;;0.40;;
41201;SDS011;26936;50.524;8.684;2023-12-22T04:00:13;0.35;;;0.20;;
41201;SDS011;26936;50.524;8.684;2023-12-22T04:02:39;3.30;;;0.47;;
41201;SDS011;26936;50.524;8.684;2023-12-22T04:05:04;0.73;;;0.30;;
41201;SDS011;26936;50.524;8.684;2023-12-22T04:07:30;0.47;;;0.25;;
41201;SDS011;26936;50.524;8.684;2023-12-22T04:09:55;0.73;;;0.20;;
41201;SDS011;26936;50.524;8.684;2023-12-22T04:12:21;1.83;;;0.30;;
41201;SDS011;26936;50.524;8.684;2023-12-22T04:14:46;1.00;;;0.32;;
41201;SDS011;26936;50.524;8.684;2023-12-22T04:17:11;0.40;;;0.10;;
41201;SDS011;26936;50.524;8.684;2023-12-22T04:19:36;2.22;;;0.30;;
41201;SDS011;26936;50.524;8.684;2023-12-22T04:22:02;1.90;;;0.32;;
41201;SDS011;26936;50.524;8.684;2023-12-22T04:24:27;1.15;;;0.30;;
41201;SDS011;26936;50.524;8.684;2023-12-22T04:26:53;1.60;;;0.30;;
41201;SDS011;26936;50.524;8.684;2023-12-22T04:29:18;3.30;;;0.40;;
41201;SDS011;26936;50.524;8.684;2023-12-22T04:31:43;1.33;;;0.30;;
41201;SDS011;26936;50.524;8.684;2023-12-22T04:34:09;1.42;;;0.40;;
41201;SDS011;26936;50.524;8.684;2023-12-22T04:36:35;2.15;;;0.30;;
41201;SDS011;26936;50.524;8.684;2023-12-22T04:39:00;1.08;;;0.30;;
41201;SDS011;26936;50.524;8.684;2023-12-22T04:41:26;1.58;;;0.30;;
41201;SDS011;26936;50.524;8.684;2023-12-22T04:43:51;1.87;;;0.30;;
41201;SDS011;26936;50.524;8.684;2023-12-22T04:46:16;2.55;;;0.68;;
41201;SDS011;26936;50.524;8.684;2023-12-22T04:48:41;3.05;;;0.63;;
41201;SDS011;26936;50.524;8.684;2023-12-22T04:51:07;2.33;;;0.43;;
41201;SDS011;26936;50.524;8.684;2023-12-22T04:53:32;1.90;;;0.30;;
41201;SDS011;26936;50.524;8.684;2023-12-22T04:55:57;8.77;;;0.80;;
41201;SDS011;26936;50.524;8.684;2023-12-22T04:58:23;1.05;;;0.20;;
41201;SDS011;26936;50.524;8.684;2023-12-22T05:00:49;1.65;;;0.38;;
41201;SDS011;26936;50.524;8.684;2023-12-22T05:03:14;3.20;;;0.30;;
41201;SDS011;26936;50.524;8.684;2023-12-22T05:05:39;1.80;;;0.30;;
41201;SDS011;26936;50.524;8.684;2023-12-22T05:08:05;2.90;;;0.30;;
41201;SDS011;26936;50.524;8.684;2023-12-22T05:10:30;0.30;;;0.30;;
41201;SDS011;26936;50.524;8.684;2023-12-22T05:12:55;0.90;;;0.38;;
41201;SDS011;26936;50.524;8.684;2023-12-22T05:15:21;1.52;;;0.50;;
41201;SDS011;26936;50.524;8.684;2023-12-22T05:17:46;1.43;;;0.40;;
41201;SDS011;26936;50.524;8.684;2023-12-22T05:20:11;1.40;;;0.60;;
41201;SDS011;26936;50.524;8.684;2023-12-22T05:22:36;1.17;;;0.57;;
41201;SDS011;26936;50.524;8.684;2023-12-22T05:25:02;4.57;;;0.63;;
41201;SDS011;26936;50.524;8.684;2023-12-22T05:27:27;5.28;;;1.00;;
41201;SDS011;26936;50.524;8.684;2023-12-22T05:29:53;1.85;;;0.90;;
41201;SDS011;26936;50.524;8.684;2023-12-22T05:32:18;8.18;;;1.10;;
41201;SDS011;26936;50.524;8.684;2023-12-22T05:34:43;5.70;;;1.08;;
41201;SDS011;26936;50.524;8.684;2023-12-22T05:37:08;5.88;;;0.90;;
41201;SDS011;26936;50.524;8.684;2023-12-22T05:39:34;3.38;;;1.20;;
41201;SDS011;26936;50.524;8.684;2023-12-22T05:41:59;5.45;;;1.20;;
41201;SDS011;26936;50.524;8.684;2023-12-22T05:44:25;5.60;;;1.63;;
41201;SDS011;26936;50.524;8.684;2023-12-22T05:46:54;10.63;;;2.22;;
41201;SDS011;26936;50.524;8.684;2023-12-22T05:49:20;6.28;;;1.80;;
41201;SDS011;26936;50.524;8.684;2023-12-22T05:51:45;12.25;;;3.17;;
41201;SDS011;26936;50.524;8.684;2023-12-22T05:54:10;12.90;;;3.08;;
41201;SDS011;26936;50.524;8.684;2023-12-22T05:56:36;10.43;;;1.90;;
41201;SDS011;26936;50.524;8.684;2023-12-22T05:59:01;8.02;;;2.25;;
41201;SDS011;26936;50.524;8.684;2023-12-22T06:01:28;8.95;;;1.75;;
41201;SDS011;26936;50.524;8.684;2023-12-22T06:03:54;11.75;;;2.33;;
41201;SDS011;26936;50.524;8.684;2023-12-22T06:06:19;6.20;;;1.40;;
41201;SDS011;26936;50.524;8.684;2023-12-22T06:08:45;7.75;;;1.63;;
41201;SDS011;26936;50.524;8.684;2023-12-22T06:11:10;7.25;;;1.48;;
41201;SDS011;26936;50.524;8.684;2023-12-22T06:13:35;6.00;;;1.13;;
41201;SDS011;26936;50.524;8.684;2023-12-22T06:16:01;6.32;;;1.55;;
41201;SDS011;26936;50.524;8.684;2023-12-22T06:18:26;6.47;;;1.20;;
41201;SDS011;26936;50.524;8.684;2023-12-22T06:20:52;8.60;;;1.73;;
41201;SDS011;26936;50.524;8.684;2023-12-22T06:23:17;6.32;;;2.30;;
41201;SDS011;26936;50.524;8.684;2023-12-22T06:25:43;10.23;;;2.58;;
41201;SDS011;26936;50.524;8.684;2023-12-22T06:28:08;5.00;;;1.08;;
41201;SDS011;26936;50.524;8.684;2023-12-22T06:30:34;5.97;;;1.57;;
41201;SDS011;26936;50.524;8.684;2023-12-22T06:32:59;8.20;;;1.27;;
41201;SDS011;26936;50.524;8.684;2023-12-22T06:35:24;6.28;;;1.60;;
41201;SDS011;26936;50.524;8.684;2023-12-22T06:37:50;6.82;;;1.15;;
41201;SDS011;26936;50.524;8.684;2023-12-22T06:40:16;4.80;;;1.25;;
41201;SDS011;26936;50.524;8.684;2023-12-22T06:42:42;7.05;;;1.63;;
41201;SDS011;26936;50.524;8.684;2023-12-22T06:45:07;5.22;;;1.70;;
41201;SDS011;26936;50.524;8.684;2023-12-22T06:47:33;6.15;;;1.95;;
41201;SDS011;26936;50.524;8.684;2023-12-22T06:49:58;7.38;;;1.80;;
41201;SDS011;26936;50.524;8.684;2023-12-22T06:52:23;6.65;;;1.58;;
41201;SDS011;26936;50.524;8.684;2023-12-22T06:54:49;9.05;;;2.00;;
41201;SDS011;26936;50.524;8.684;2023-12-22T06:57:14;6.13;;;1.60;;
41201;SDS011;26936;50.524;8.684;2023-12-22T06:59:39;8.82;;;2.40;;
41201;SDS011;26936;50.524;8.684;2023-12-22T07:02:05;7.82;;;2.17;;
41201;SDS011;26936;50.524;8.684;2023-12-22T07:04:31;5.85;;;1.85;;
41201;SDS011;26936;50.524;8.684;2023-12-22T07:07:15;5.75;;;2.28;;
41201;SDS011;26936;50.524;8.684;2023-12-22T07:09:40;8.70;;;2.05;;
41201;SDS011;26936;50.524;8.684;2023-12-22T07:12:06;7.63;;;1.80;;
41201;SDS011;26936;50.524;8.684;2023-12-22T07:14:31;5.45;;;1.75;;
41201;SDS011;26936;50.524;8.684;2023-12-22T07:16:56;3.60;;;1.25;;
41201;SDS011;26936;50.524;8.684;2023-12-22T07:19:23;4.88;;;1.25;;
41201;SDS011;26936;50.524;8.684;2023-12-22T07:21:48;3.30;;;1.17;;
41201;SDS011;26936;50.524;8.684;2023-12-22T07:24:14;4.05;;;1.42;;
41201;SDS011;26936;50.524;8.684;2023-12-22T07:26:39;4.18;;;1.67;;
41201;SDS011;26936;50.524;8.684;2023-12-22T07:29:05;4.88;;;1.40;;
41201;SDS011;26936;50.524;8.684;2023-12-22T07:31:30;7.88;;;1.83;;
41201;SDS011;26936;50.524;8.684;2023-12-22T07:33:55;4.77;;;1.57;;
41201;SDS011;26936;50.524;8.684;2023-12-22T07:36:20;3.83;;;1.83;;
41201;SDS011;26936;50.524;8.684;2023-12-22T07:38:46;5.85;;;1.13;;
41201;SDS011;26936;50.524;8.684;2023-12-22T07:41:11;9.80;;;1.45;;
41201;SDS011;26936;50.524;8.684;2023-12-22T07:43:37;7.72;;;1.30;;
41201;SDS011;26936;50.524;8.684;2023-12-22T07:46:02;8.63;;;1.93;;
41201;SDS011;26936;50.524;8.684;2023-12-22T07:48:28;3.85;;;1.00;;
41201;SDS011;26936;50.524;8.684;2023-12-22T07:50:53;6.88;;;1.50;;
41201;SDS011;26936;50.524;8.684;2023-12-22T07:53:18;6.88;;;1.73;;
41201;SDS011;26936;50.524;8.684;2023-12-22T07:55:44;6.50;;;1.42;;
41201;SDS011;26936;50.524;8.684;2023-12-22T07:58:09;9.88;;;1.63;;
41201;SDS011;26936;50.524;8.684;2023-12-22T08:00:35;6.15;;;1.67;;
41201;SDS011;26936;50.524;8.684;2023-12-22T08:03:01;9.35;;;1.88;;
41201;SDS011;26936;50.524;8.684;2023-12-22T08:05:26;4.88;;;1.77;;
41201;SDS011;26936;50.524;8.684;2023-12-22T08:07:52;9.57;;;1.65;;
41201;SDS011;26936;50.524;8.684;2023-12-22T08:10:17;6.68;;;1.85;;
41201;SDS011;26936;50.524;8.684;2023-12-22T08:12:43;13.07;;;1.90;;
41201;SDS011;26936;50.524;8.684;2023-12-22T08:15:08;3.63;;;1.45;;
41201;SDS011;26936;50.524;8.684;2023-12-22T08:17:37;5.90;;;2.05;;
41201;SDS011;26936;50.524;8.684;2023-12-22T08:20:05;8.40;;;1.70;;
41201;SDS011;26936;50.524;8.684;2023-12-22T08:22:33;8.40;;;2.47;;
41201;SDS011;26936;50.524;8.684;2023-12-22T08:24:59;9.82;;;2.83;;
41201;SDS011;26936;50.524;8.684;2023-12-22T08:27:24;9.40;;;2.60;;
41201;SDS011;26936;50.524;8.684;2023-12-22T08:29:50;6.85;;;2.10;;
41201;SDS011;26936;50.524;8.684;2023-12-22T08:32:15;6.73;;;2.90;;
41201;SDS011;26936;50.524;8.684;2023-12-22T08:34:40;12.00;;;3.05;;
41201;SDS011;26936;50.524;8.684;2023-12-22T08:37:06;6.60;;;2.70;;
41201;SDS011;26936;50.524;8.684;2023-12-22T08:39:31;14.63;;;3.25;;
41201;SDS011;26936;50.524;8.684;2023-12-22T08:41:56;7.60;;;2.83;;
41201;SDS011;26936;50.524;8.684;2023-12-22T08:44:22;15.15;;;2.67;;
41201;SDS011;26936;50.524;8.684;2023-12-22T08:46:47;9.17;;;2.93;;
41201;SDS011;26936;50.524;8.684;2023-12-22T08:49:12;14.98;;;3.38;;
41201;SDS011;26936;50.524;8.684;2023-12-22T08:51:38;9.35;;;2.88;;
41201;SDS011;26936;50.524;8.684;2023-12-22T08:54:03;8.95;;;1.85;;
41201;SDS011;26936;50.524;8.684;2023-12-22T08:56:29;15.27;;;3.67;;
41201;SDS011;26936;50.524;8.684;2023-12-22T08:58:55;9.77;;;2.80;;
41201;SDS011;26936;50.524;8.684;2023-12-22T09:01:26;5.20;;;1.60;;
41201;SDS011;26936;50.524;8.684;2023-12-22T09:03:52;5.30;;;1.60;;
41201;SDS011;26936;50.524;8.684;2023-12-22T09:06:18;7.20;;;1.85;;
41201;SDS011;26936;50.524;8.684;2023-12-22T09:08:48;3.90;;;1.40;;
41201;SDS011;26936;50.524;8.684;2023-12-22T09:11:16;4.22;;;1.27;;
41201;SDS011;26936;50.524;8.684;2023-12-22T09:13:42;3.78;;;0.77;;
41201;SDS011;26936;50.524;8.684;2023-12-22T09:16:08;4.93;;;1.00;;
41201;SDS011;26936;50.524;8.684;2023-12-22T09:18:34;3.83;;;1.00;;
41201;SDS011;26936;50.524;8.684;2023-12-22T09:21:00;5.88;;;1.30;;
41201;SDS011;26936;50.524;8.684;2023-12-22T09:23:27;3.67;;;1.10;;
41201;SDS011;26936;50.524;8.684;2023-12-22T09:25:53;3.90;;;0.93;;
41201;SDS011;26936;50.524;8.684;2023-12-22T09:28:18;6.03;;;1.30;;
41201;SDS011;26936;50.524;8.684;2023-12-22T09:30:43;7.60;;;1.90;;
41201;SDS011;26936;50.524;8.684;2023-12-22T09:33:09;7.22;;;1.60;;
41201;SDS011;26936;50.524;8.684;2023-12-22T09:35:35;5.45;;;1.42;;
41201;SDS011;26936;50.524;8.684;2023-12-22T09:38:00;4.55;;;1.20;;
41201;SDS011;26936;50.524;8.684;2023-12-22T09:40:26;5.78;;;1.33;;
41201;SDS011;26936;50.524;8.684;2023-12-22T09:42:55;4.47;;;1.60;;
41201;SDS011;26936;50.524;8.684;2023-12-22T09:45:22;3.42;;;1.05;;
41201;SDS011;26936;50.524;8.684;2023-12-22T09:47:48;10.13;;;1.33;;
41201;SDS011;26936;50.524;8.684;2023-12-22T09:50:16;4.10;;;0.90;;
41201;SDS011;26936;50.524;8.684;2023-12-22T09:52:42;2.75;;;1.00;;
41201;SDS011;26936;50.524;8.684;2023-12-22T09:55:14;5.15;;;1.10;;
41201;SDS011;26936;50.524;8.684;2023-12-22T09:57:39;6.43;;;1.23;;
41201;SDS011;26936;50.524;8.684;2023-12-22T10:00:10;6.47;;;1.15;;
41201;SDS011;26936;50.524;8.684;2023-12-22T10:02:38;6.00;;;1.80;;
41201;SDS011;26936;50.524;8.684;2023-12-22T10:05:04;4.28;;;1.13;;
41201;SDS011;26936;50.524;8.684;2023-12-22T10:07:30;6.35;;;1.48;;
41201;SDS011;26936;50.524;8.684;2023-12-22T10:09:55;6.05;;;1.80;;
41201;SDS011;26936;50.524;8.684;2023-12-22T10:12:22;8.05;;;1.42;;
41201;SDS011;26936;50.524;8.684;2023-12-22T10:14:49;10.30;;;1.90;;
41201;SDS011;26936;50.524;8.684;2023-12-22T10:17:15;8.27;;;1.60;;
41201;SDS011;26936;50.524;8.684;2023-12-22T10:19:41;6.28;;;1.55;;
41201;SDS011;26936;50.524;8.684;2023-12-22T10:22:07;7.60;;;1.90;;
41201;SDS011;26936;50.524;8.684;2023-12-22T10:24:39;10.70;;;1.83;;
41201;SDS011;26936;50.524;8.684;2023-12-22T10:27:04;13.98;;;2.33;;
41201;SDS011;26936;50.524;8.684;2023-12-22T10:29:30;7.30;;;1.88;;
41201;SDS011;26936;50.524;8.684;2023-12-22T10:31:57;10.57;;;2.75;;
41201;SDS011;26936;50.524;8.684;2023-12-22T10:34:23;8.43;;;2.40;;
41201;SDS011;26936;50.524;8.684;2023-12-22T10:36:48;11.13;;;2.20;;
41201;SDS011;26936;50.524;8.684;2023-12-22T10:39:14;13.95;;;2.70;;
41201;SDS011;26936;50.524;8.684;2023-12-22T10:41:40;11.10;;;2.42;;
41201;SDS011;26936;50.524;8.684;2023-12-22T10:44:05;13.77;;;2.85;;
41201;SDS011;26936;50.524;8.684;2023-12-22T10:46:31;10.80;;;2.97;;
41201;SDS011;26936;50.524;8.684;2023-12-22T10:48:59;13.25;;;2.22;;
41201;SDS011;26936;50.524;8.684;2023-12-22T10:51:26;13.52;;;2.92;;
41201;SDS011;26936;50.524;8.684;2023-12-22T10:53:57;11.60;;;2.60;;
41201;SDS011;26936;50.524;8.684;2023-12-22T10:56:22;14.07;;;2.90;;
41201;SDS011;26936;50.524;8.684;2023-12-22T10:58:48;15.55;;;3.80;;
41201;SDS011;26936;50.524;8.684;2023-12-22T11:01:14;15.88;;;2.85;;
41201;SDS011;26936;50.524;8.684;2023-12-22T11:03:39;14.45;;;2.80;;
41201;SDS011;26936;50.524;8.684;2023-12-22T11:06:09;14.35;;;2.80;;
41201;SDS011;26936;50.524;8.684;2023-12-22T11:08:37;15.98;;;3.10;;
41201;SDS011;26936;50.524;8.684;2023-12-22T11:13:59;13.90;;;2.88;;
41201;SDS011;26936;50.524;8.684;2023-12-22T11:16:27;15.98;;;3.63;;
41201;SDS011;26936;50.524;8.684;2023-12-22T11:18:54;19.42;;;2.80;;
41201;SDS011;26936;50.524;8.684;2023-12-22T11:21:23;19.20;;;3.65;;
41201;SDS011;26936;50.524;8.684;2023-12-22T11:23:50;11.63;;;3.05;;
41201;SDS011;26936;50.524;8.684;2023-12-22T11:26:16;16.02;;;3.13;;
41201;SDS011;26936;50.524;8.684;2023-12-22T11:28:43;9.20;;;2.00;;
41201;SDS011;26936;50.524;8.684;2023-12-22T11:31:10;15.30;;;3.42;;
41201;SDS011;26936;50.524;8.684;2023-12-22T11:33:50;14.73;;;2.38;;
41201;SDS011;26936;50.524;8.684;2023-12-22T11:36:16;9.73;;;2.33;;
41201;SDS011;26936;50.524;8.684;2023-12-22T11:38:43;15.05;;;3.13;;
41201;SDS011;26936;50.524;8.684;2023-12-22T11:41:18;14.75;;;3.10;;
41201;SDS011;26936;50.524;8.684;2023-12-22T11:43:46;10.63;;;3.30;;
41201;SDS011;26936;50.524;8.684;2023-12-22T11:46:12;10.18;;;2.28;;
41201;SDS011;26936;50.524;8.684;2023-12-22T11:48:37;12.27;;;2.75;;
41201;SDS011;26936;50.524;8.684;2023-12-22T11:51:14;15.60;;;3.50;;
41201;SDS011;26936;50.524;8.684;2023-12-22T11:53:40;5.65;;;2.08;;
41201;SDS011;26936;50.524;8.684;2023-12-22T11:56:05;10.23;;;2.03;;
41201;SDS011;26936;50.524;8.684;2023-12-22T11:58:47;8.32;;;2.10;;
41201;SDS011;26936;50.524;8.684;2023-12-22T12:01:17;7.43;;;2.03;;
41201;SDS011;26936;50.524;8.684;2023-12-22T12:03:57;10.82;;;1.88;;
41201;SDS011;26936;50.524;8.684;2023-12-22T12:08:52;9.13;;;1.77;;
41201;SDS011;26936;50.524;8.684;2023-12-22T12:11:19;8.80;;;1.70;;
41201;SDS011;26936;50.524;8.684;2023-12-22T12:13:45;11.75;;;1.83;;
41201;SDS011;26936;50.524;8.684;2023-12-22T12:16:11;10.93;;;2.17;;
41201;SDS011;26936;50.524;8.684;2023-12-22T12:18:44;5.93;;;1.83;;
41201;SDS011;26936;50.524;8.684;2023-12-22T12:21:10;4.05;;;1.52;;
41201;SDS011;26936;50.524;8.684;2023-12-22T12:23:36;7.32;;;1.83;;
41201;SDS011;26936;50.524;8.684;2023-12-22T12:26:02;5.57;;;1.50;;
41201;SDS011;26936;50.524;8.684;2023-12-22T12:28:28;11.18;;;3.15;;
41201;SDS011;26936;50.524;8.684;2023-12-22T12:30:58;9.00;;;1.77;;
41201;SDS011;26936;50.524;8.684;2023-12-22T12:33:25;6.82;;;2.30;;
41201;SDS011;26936;50.524;8.684;2023-12-22T12:35:50;11.20;;;1.95;;
41201;SDS011;26936;50.524;8.684;2023-12-22T12:38:18;6.30;;;1.30;;
41201;SDS011;26936;50.524;8.684;2023-12-22T12:40:49;4.90;;;1.42;;
41201;SDS011;26936;50.524;8.684;2023-12-22T12:43:19;6.82;;;1.42;;
41201;SDS011;26936;50.524;8.684;2023-12-22T12:45:44;6.05;;;1.30;;
41201;SDS011;26936;50.524;8.684;2023-12-22T12:48:09;2.38;;;1.10;;
41201;SDS011;26936;50.524;8.684;2023-12-22T12:50:35;2.63;;;1.10;;
41201;SDS011;26936;50.524;8.684;2023-12-22T12:53:01;3.58;;;0.90;;
41201;SDS011;26936;50.524;8.684;2023-12-22T12:55:27;2.17;;;1.10;;
41201;SDS011;26936;50.524;8.684;2023-12-22T12:57:55;2.35;;;1.08;;
41201;SDS011;26936;50.524;8.684;2023-12-22T13:03:02;1.23;;;0.70;;
41201;SDS011;26936;50.524;8.684;2023-12-22T13:05:29;2.03;;;0.60;;
41201;SDS011;26936;50.524;8.684;2023-12-22T13:08:05;1.92;;;0.80;;
41201;SDS011;26936;50.524;8.684;2023-12-22T13:10:34;2.10;;;0.75;;
41201;SDS011;26936;50.524;8.684;2023-12-22T13:13:00;1.02;;;0.70;;
41201;SDS011;26936;50.524;8.684;2023-12-22T13:15:25;1.05;;;0.70;;
41201;SDS011;26936;50.524;8.684;2023-12-22T13:17:51;1.27;;;1.00;;
41201;SDS011;26936;50.524;8.684;2023-12-22T13:20:17;1.60;;;1.23;;
41201;SDS011;26936;50.524;8.684;2023-12-22T13:22:42;3.08;;;1.08;;
41201;SDS011;26936;50.524;8.684;2023-12-22T13:25:09;4.82;;;1.30;;
41201;SDS011;26936;50.524;8.684;2023-12-22T13:27:47;4.88;;;1.10;;
41201;SDS011;26936;50.524;8.684;2023-12-22T13:33:17;2.40;;;1.27;;
41201;SDS011;26936;50.524;8.684;2023-12-22T13:35:42;2.67;;;1.15;;
41201;SDS011;26936;50.524;8.684;2023-12-22T13:38:07;2.30;;;0.98;;
41201;SDS011;26936;50.524;8.684;2023-12-22T13:40:34;3.95;;;1.55;;
41201;SDS011;26936;50.524;8.684;2023-12-22T13:43:00;3.20;;;1.20;;
41201;SDS011;26936;50.524;8.684;2023-12-22T13:45:27;2.90;;;1.30;;
41201;SDS011;26936;50.524;8.684;2023-12-22T13:47:53;2.15;;;1.08;;
41201;SDS011;26936;50.524;8.684;2023-12-22T13:50:18;3.53;;;1.02;;
41201;SDS011;26936;50.524;8.684;2023-12-22T13:52:47;1.67;;;1.10;;
41201;SDS011;26936;50.524;8.684;2023-12-22T13:55:15;4.30;;;1.20;;
41201;SDS011;26936;50.524;8.684;2023-12-22T13:57:41;3.67;;;1.30;;
41201;SDS011;26936;50.524;8.684;2023-12-22T14:02:41;10.27;;;3.35;;
41201;SDS011;26936;50.524;8.684;2023-12-22T14:05:07;2.53;;;1.30;;
41201;SDS011;26936;50.524;8.684;2023-12-22T14:07:32;2.63;;;1.30;;
41201;SDS011;26936;50.524;8.684;2023-12-22T14:10:03;2.72;;;1.42;;
41201;SDS011;26936;50.524;8.684;2023-12-22T14:12:30;3.03;;;1.45;;
41201;SDS011;26936;50.524;8.684;2023-12-22T14:14:55;3.87;;;1.90;;
41201;SDS011;26936;50.524;8.684;2023-12-22T14:17:23;3.17;;;1.80;;
41201;SDS011;26936;50.524;8.684;2023-12-22T14:19:48;14.75;;;4.43;;
41201;SDS011;26936;50.524;8.684;2023-12-22T14:22:16;5.85;;;2.30;;
41201;SDS011;26936;50.524;8.684;2023-12-22T14:24:42;5.07;;;1.60;;
41201;SDS011;26936;50.524;8.684;2023-12-22T14:27:07;5.95;;;2.30;;
41201;SDS011;26936;50.524;8.684;2023-12-22T14:29:32;3.47;;;1.35;;
41201;SDS011;26936;50.524;8.684;2023-12-22T14:32:00;5.57;;;1.65;;
41201;SDS011;26936;50.524;8.684;2023-12-22T14:34:25;3.87;;;1.50;;
41201;SDS011;26936;50.524;8.684;2023-12-22T14:36:51;2.42;;;1.20;;
41201;SDS011;26936;50.524;8.684;2023-12-22T14:39:39;2.65;;;0.80;;
41201;SDS011;26936;50.524;8.684;2023-12-22T14:42:04;4.10;;;1.20;;
41201;SDS011;26936;50.524;8.684;2023-12-22T14:44:31;1.10;;;0.75;;
41201;SDS011;26936;50.524;8.684;2023-12-22T14:46:56;2.97;;;1.20;;
41201;SDS011;26936;50.524;8.684;2023-12-22T14:49:22;3.40;;;1.20;;
41201;SDS011;26936;50.524;8.684;2023-12-22T14:51:47;4.47;;;1.63;;
41201;SDS011;26936;50.524;8.684;2023-12-22T14:54:18;3.30;;;1.75;;